sensor_id;sensor_type;location;lat;lon;timestamp;pressure;altitude;pressure_sealevel;temperature;humidity
21730;BME280;11027;51.030;13.812;2024-03-08T00:00:16;100847.09;;;4.38;59.11
21730;BME280;11027;51.030;13.812;2024-03-08T00:02:44;100850.16;;;4.34;59.37
21730;BME280;11027;51.030;13.812;2024-03-08T00:05:10;100846.13;;;4.28;59.54
21730;BME280;11027;51.030;13.812;2024-03-08T00:07:36;100842.31;;;4.19;59.41
21730;BME280;11027;51.030;13.812;2024-03-08T00:10:03;100840.84;;;4.15;59.71
21730;BME280;11027;51.030;13.812;2024-03-08T00:12:28;100842.19;;;4.10;60.08
21730;BME280;11027;51.030;13.812;2024-03-08T00:14:54;100845.25;;;4.05;60.23
21730;BME280;11027;51.030;13.812;2024-03-08T00:17:20;100834.09;;;3.98;60.35
21730;BME280;11027;51.030;13.812;2024-03-08T00:19:47;100835.22;;;3.96;60.49
21730;BME280;11027;51.030;13.812;2024-03-08T00:22:13;100844.28;;;3.95;60.60
21730;BME280;11027;51.030;13.812;2024-03-08T00:24:38;100835.44;;;3.93;60.76
21730;BME280;11027;51.030;13.812;2024-03-08T00:27:04;100835.81;;;3.88;60.81
21730;BME280;11027;51.030;13.812;2024-03-08T00:29:30;100839.59;;;3.86;61.23
21730;BME280;11027;51.030;13.812;2024-03-08T00:31:56;100844.13;;;3.85;61.60
21730;BME280;11027;51.030;13.812;2024-03-08T00:34:21;100841.56;;;3.84;61.68
21730;BME280;11027;51.030;13.812;2024-03-08T00:36:46;100831.03;;;3.80;61.88
21730;BME280;11027;51.030;13.812;2024-03-08T00:39:12;100841.56;;;3.84;61.97
21730;BME280;11027;51.030;13.812;2024-03-08T00:41:38;100832.72;;;3.81;62.19
21730;BME280;11027;51.030;13.812;2024-03-08T00:44:03;100834.94;;;3.76;62.44
21730;BME280;11027;51.030;13.812;2024-03-08T00:46:29;100830.66;;;3.74;62.59
21730;BME280;11027;51.030;13.812;2024-03-08T00:48:56;100833.47;;;3.72;62.73
21730;BME280;11027;51.030;13.812;2024-03-08T00:51:21;100826.81;;;3.65;62.96
21730;BME280;11027;51.030;13.812;2024-03-08T00:53:47;100825.97;;;3.65;62.62
21730;BME280;11027;51.030;13.812;2024-03-08T00:56:12;100832.22;;;3.65;62.73
21730;BME280;11027;51.030;13.812;2024-03-08T00:58:37;100825.59;;;3.58;62.73
21730;BME280;11027;51.030;13.812;2024-03-08T01:01:03;100822.66;;;3.50;62.99
21730;BME280;11027;51.030;13.812;2024-03-08T01:03:30;100823.47;;;3.39;63.22
21730;BME280;11027;51.030;13.812;2024-03-08T01:05:56;100815.25;;;3.29;63.65
21730;BME280;11027;51.030;13.812;2024-03-08T01:08:22;100814.75;;;3.24;63.57
21730;BME280;11027;51.030;13.812;2024-03-08T01:10:48;100821.09;;;3.23;63.50
21730;BME280;11027;51.030;13.812;2024-03-08T01:13:16;100821.56;;;3.17;63.65
21730;BME280;11027;51.030;13.812;2024-03-08T01:15:41;100812.72;;;3.15;63.83
21730;BME280;11027;51.030;13.812;2024-03-08T01:18:07;100814.69;;;3.13;64.06
21730;BME280;11027;51.030;13.812;2024-03-08T01:20:32;100818.38;;;3.12;64.19
21730;BME280;11027;51.030;13.812;2024-03-08T01:22:58;100814.69;;;3.13;64.44
21730;BME280;11027;51.030;13.812;2024-03-08T01:25:23;100801.84;;;3.16;64.42
21730;BME280;11027;51.030;13.812;2024-03-08T01:27:48;100808.09;;;3.17;64.49
21730;BME280;11027;51.030;13.812;2024-03-08T01:30:13;100801.97;;;3.15;64.61
21730;BME280;11027;51.030;13.812;2024-03-08T01:32:42;100798.78;;;3.10;64.75
21730;BME280;11027;51.030;13.812;2024-03-08T01:35:09;100796.72;;;3.13;64.72
21730;BME280;11027;51.030;13.812;2024-03-08T01:37:35;100797.78;;;3.11;64.83
21730;BME280;11027;51.030;13.812;2024-03-08T01:40:00;100791.91;;;3.06;65.06
21730;BME280;11027;51.030;13.812;2024-03-08T01:42:26;100782.34;;;3.02;65.18
21730;BME280;11027;51.030;13.812;2024-03-08T01:44:51;100782.81;;;2.95;65.33
21730;BME280;11027;51.030;13.812;2024-03-08T01:47:17;100785.72;;;2.92;65.63
21730;BME280;11027;51.030;13.812;2024-03-08T01:49:43;100775.22;;;2.89;65.92
21730;BME280;11027;51.030;13.812;2024-03-08T01:52:08;100771.03;;;2.85;65.96
21730;BME280;11027;51.030;13.812;2024-03-08T01:54:34;100772.00;;;2.84;65.73
21730;BME280;11027;51.030;13.812;2024-03-08T01:57:01;100770.06;;;2.86;65.88
21730;BME280;11027;51.030;13.812;2024-03-08T01:59:26;100767.34;;;2.86;65.60
21730;BME280;11027;51.030;13.812;2024-03-08T02:01:55;100771.50;;;2.79;65.62
21730;BME280;11027;51.030;13.812;2024-03-08T02:04:21;100766.13;;;2.79;65.41
21730;BME280;11027;51.030;13.812;2024-03-08T02:06:46;100770.03;;;2.75;65.70
21730;BME280;11027;51.030;13.812;2024-03-08T02:09:13;100769.38;;;2.71;65.81
21730;BME280;11027;51.030;13.812;2024-03-08T02:11:40;100773.38;;;2.66;66.01
21730;BME280;11027;51.030;13.812;2024-03-08T02:14:06;100766.53;;;2.62;66.19
21730;BME280;11027;51.030;13.812;2024-03-08T02:16:31;100769.44;;;2.58;66.14
21730;BME280;11027;51.030;13.812;2024-03-08T02:18:57;100769.88;;;2.52;66.10
21730;BME280;11027;51.030;13.812;2024-03-08T02:21:23;100772.56;;;2.52;66.09
21730;BME280;11027;51.030;13.812;2024-03-08T02:23:49;100765.25;;;2.54;66.23
21730;BME280;11027;51.030;13.812;2024-03-08T02:26:17;100763.75;;;2.50;66.35
21730;BME280;11027;51.030;13.812;2024-03-08T02:28:43;100761.53;;;2.44;66.40
21730;BME280;11027;51.030;13.812;2024-03-08T02:31:09;100750.03;;;2.42;66.28
21730;BME280;11027;51.030;13.812;2024-03-08T02:33:34;100748.31;;;2.41;66.12
21730;BME280;11027;51.030;13.812;2024-03-08T02:35:59;100750.38;;;2.37;66.66
21730;BME280;11027;51.030;13.812;2024-03-08T02:38:25;100752.66;;;2.31;66.78
21730;BME280;11027;51.030;13.812;2024-03-08T02:40:52;100742.13;;;2.28;66.94
21730;BME280;11027;51.030;13.812;2024-03-08T02:43:18;100743.84;;;2.29;66.96
21730;BME280;11027;51.030;13.812;2024-03-08T02:45:44;100756.09;;;2.33;66.86
21730;BME280;11027;51.030;13.812;2024-03-08T02:48:13;100750.94;;;2.30;67.17
21730;BME280;11027;51.030;13.812;2024-03-08T02:50:39;100746.75;;;2.26;67.44
21730;BME280;11027;51.030;13.812;2024-03-08T02:53:11;100760.44;;;2.23;67.49
21730;BME280;11027;51.030;13.812;2024-03-08T02:55:38;100753.56;;;2.18;67.47
21730;BME280;11027;51.030;13.812;2024-03-08T02:58:04;100753.78;;;2.15;67.61
21730;BME280;11027;51.030;13.812;2024-03-08T03:00:29;100749.16;;;2.17;67.64
21730;BME280;11027;51.030;13.812;2024-03-08T03:02:56;100746.47;;;2.17;67.52
21730;BME280;11027;51.030;13.812;2024-03-08T03:05:22;100748.31;;;2.17;67.45
21730;BME280;11027;51.030;13.812;2024-03-08T03:07:48;100748.41;;;2.15;67.52
21730;BME280;11027;51.030;13.812;2024-03-08T03:10:14;100744.13;;;2.13;67.43
21730;BME280;11027;51.030;13.812;2024-03-08T03:12:42;100739.59;;;2.13;67.63
21730;BME280;11027;51.030;13.812;2024-03-08T03:15:08;100736.06;;;2.13;67.63
21730;BME280;11027;51.030;13.812;2024-03-08T03:17:33;100734.47;;;2.10;67.82
21730;BME280;11027;51.030;13.812;2024-03-08T03:19:58;100735.66;;;2.06;67.88
21730;BME280;11027;51.030;13.812;2024-03-08T03:22:24;100737.47;;;2.06;68.14
21730;BME280;11027;51.030;13.812;2024-03-08T03:24:50;100729.53;;;2.04;68.11
21730;BME280;11027;51.030;13.812;2024-03-08T03:27:16;100733.19;;;2.03;68.07
21730;BME280;11027;51.030;13.812;2024-03-08T03:29:43;100728.03;;;2.00;68.10
21730;BME280;11027;51.030;13.812;2024-03-08T03:32:12;100734.56;;;1.96;68.18
21730;BME280;11027;51.030;13.812;2024-03-08T03:34:38;100732.78;;;1.96;68.19
21730;BME280;11027;51.030;13.812;2024-03-08T03:37:04;100731.16;;;1.94;68.30
21730;BME280;11027;51.030;13.812;2024-03-08T03:39:30;100734.06;;;1.91;68.41
21730;BME280;11027;51.030;13.812;2024-03-08T03:42:02;100723.31;;;1.91;68.61
21730;BME280;11027;51.030;13.812;2024-03-08T03:44:28;100728.47;;;1.94;68.27
21730;BME280;11027;51.030;13.812;2024-03-08T03:46:53;100723.81;;;1.96;68.21
21730;BME280;11027;51.030;13.812;2024-03-08T03:49:19;100726.75;;;1.93;68.62
21730;BME280;11027;51.030;13.812;2024-03-08T03:51:44;100725.47;;;1.86;68.71
21730;BME280;11027;51.030;13.812;2024-03-08T03:54:10;100730.84;;;1.86;68.94
21730;BME280;11027;51.030;13.812;2024-03-08T03:56:35;100726.56;;;1.83;69.34
21730;BME280;11027;51.030;13.812;2024-03-08T03:59:01;100731.53;;;1.76;69.26
21730;BME280;11027;51.030;13.812;2024-03-08T04:01:26;100723.81;;;1.72;69.45
21730;BME280;11027;51.030;13.812;2024-03-08T04:03:51;100714.13;;;1.69;69.59
21730;BME280;11027;51.030;13.812;2024-03-08T04:06:17;100720.47;;;1.68;69.84
21730;BME280;11027;51.030;13.812;2024-03-08T04:08:42;100721.88;;;1.61;69.66
21730;BME280;11027;51.030;13.812;2024-03-08T04:11:07;100715.00;;;1.57;69.93
21730;BME280;11027;51.030;13.812;2024-03-08T04:13:35;100716.06;;;1.54;69.96
21730;BME280;11027;51.030;13.812;2024-03-08T04:16:01;100717.03;;;1.53;70.11
21730;BME280;11027;51.030;13.812;2024-03-08T04:18:27;100711.56;;;1.55;70.04
21730;BME280;11027;51.030;13.812;2024-03-08T04:20:53;100715.22;;;1.54;69.96
21730;BME280;11027;51.030;13.812;2024-03-08T04:23:18;100719.50;;;1.56;70.05
21730;BME280;11027;51.030;13.812;2024-03-08T04:25:44;100718.00;;;1.52;70.19
21730;BME280;11027;51.030;13.812;2024-03-08T04:28:09;100722.97;;;1.46;70.25
21730;BME280;11027;51.030;13.812;2024-03-08T04:30:38;100722.09;;;1.45;70.49
21730;BME280;11027;51.030;13.812;2024-03-08T04:33:05;100706.88;;;1.46;70.43
21730;BME280;11027;51.030;13.812;2024-03-08T04:35:31;100710.50;;;1.45;70.66
21730;BME280;11027;51.030;13.812;2024-03-08T04:37:56;100708.78;;;1.44;70.67
21730;BME280;11027;51.030;13.812;2024-03-08T04:40:23;100712.44;;;1.43;70.82
21730;BME280;11027;51.030;13.812;2024-03-08T04:46:03;100710.28;;;1.35;71.05
21730;BME280;11027;51.030;13.812;2024-03-08T04:48:29;100711.16;;;1.35;70.92
21730;BME280;11027;51.030;13.812;2024-03-08T04:50:54;100713.94;;;1.34;71.09
21730;BME280;11027;51.030;13.812;2024-03-08T04:53:20;100715.97;;;1.30;71.16
21730;BME280;11027;51.030;13.812;2024-03-08T04:55:46;100711.56;;;1.29;71.19
21730;BME280;11027;51.030;13.812;2024-03-08T04:58:11;100708.03;;;1.29;71.15
21730;BME280;11027;51.030;13.812;2024-03-08T05:00:36;100711.81;;;1.26;71.14
21730;BME280;11027;51.030;13.812;2024-03-08T05:03:02;100709.31;;;1.23;71.40
21730;BME280;11027;51.030;13.812;2024-03-08T05:05:27;100698.81;;;1.20;71.40
21730;BME280;11027;51.030;13.812;2024-03-08T05:07:54;100698.56;;;1.23;71.28
21730;BME280;11027;51.030;13.812;2024-03-08T05:10:19;100695.91;;;1.23;71.42
21730;BME280;11027;51.030;13.812;2024-03-08T05:12:45;100692.47;;;1.21;71.40
21730;BME280;11027;51.030;13.812;2024-03-08T05:15:10;100688.81;;;1.22;71.64
21730;BME280;11027;51.030;13.812;2024-03-08T05:17:35;100687.53;;;1.28;71.48
21730;BME280;11027;51.030;13.812;2024-03-08T05:20:01;100695.69;;;1.26;71.29
21730;BME280;11027;51.030;13.812;2024-03-08T05:22:26;100698.38;;;1.26;71.24
21730;BME280;11027;51.030;13.812;2024-03-08T05:24:51;100703.00;;;1.24;71.23
21730;BME280;11027;51.030;13.812;2024-03-08T05:27:16;100690.53;;;1.23;71.35
21730;BME280;11027;51.030;13.812;2024-03-08T05:29:42;100686.03;;;1.24;71.38
21730;BME280;11027;51.030;13.812;2024-03-08T05:32:07;100693.00;;;1.26;71.31
21730;BME280;11027;51.030;13.812;2024-03-08T05:34:32;100692.25;;;1.24;71.26
21730;BME280;11027;51.030;13.812;2024-03-08T05:36:58;100684.22;;;1.24;71.52
21730;BME280;11027;51.030;13.812;2024-03-08T05:39:23;100691.50;;;1.22;71.35
21730;BME280;11027;51.030;13.812;2024-03-08T05:41:49;100692.47;;;1.21;71.50
21730;BME280;11027;51.030;13.812;2024-03-08T05:44:14;100690.75;;;1.20;71.62
21730;BME280;11027;51.030;13.812;2024-03-08T05:46:39;100685.38;;;1.20;71.54
21730;BME280;11027;51.030;13.812;2024-03-08T05:49:08;100685.50;;;1.18;71.41
21730;BME280;11027;51.030;13.812;2024-03-08T05:51:36;100686.13;;;1.22;71.70
21730;BME280;11027;51.030;13.812;2024-03-08T05:54:02;100687.22;;;1.19;71.31
21730;BME280;11027;51.030;13.812;2024-03-08T05:56:29;100689.91;;;1.19;71.50
21730;BME280;11027;51.030;13.812;2024-03-08T05:58:54;100689.78;;;1.21;71.58
21730;BME280;11027;51.030;13.812;2024-03-08T06:01:19;100687.09;;;1.21;71.64
21730;BME280;11027;51.030;13.812;2024-03-08T06:03:45;100688.59;;;1.25;71.55
21730;BME280;11027;51.030;13.812;2024-03-08T06:06:13;100690.31;;;1.26;71.55
21730;BME280;11027;51.030;13.812;2024-03-08T06:08:39;100693.97;;;1.25;71.56
21730;BME280;11027;51.030;13.812;2024-03-08T06:11:05;100692.03;;;1.27;71.77
21730;BME280;11027;51.030;13.812;2024-03-08T06:13:33;100693.75;;;1.28;71.84
21730;BME280;11027;51.030;13.812;2024-03-08T06:15:59;100693.97;;;1.25;71.98
21730;BME280;11027;51.030;13.812;2024-03-08T06:18:25;100694.38;;;1.19;71.96
21730;BME280;11027;51.030;13.812;2024-03-08T06:20:50;100690.94;;;1.17;71.95
21730;BME280;11027;51.030;13.812;2024-03-08T06:23:15;100692.88;;;1.15;72.13
21730;BME280;11027;51.030;13.812;2024-03-08T06:25:44;100689.44;;;1.13;72.11
21730;BME280;11027;51.030;13.812;2024-03-08T06:28:10;100692.88;;;1.15;72.33
21730;BME280;11027;51.030;13.812;2024-03-08T06:30:35;100691.28;;;1.25;72.20
21730;BME280;11027;51.030;13.812;2024-03-08T06:33:00;100690.00;;;1.31;71.96
21730;BME280;11027;51.030;13.812;2024-03-08T06:35:26;100689.69;;;1.35;71.82
21730;BME280;11027;51.030;13.812;2024-03-08T06:37:51;100684.09;;;1.38;71.80
21730;BME280;11027;51.030;13.812;2024-03-08T06:40:16;100682.38;;;1.37;71.81
21730;BME280;11027;51.030;13.812;2024-03-08T06:42:41;100673.25;;;1.40;71.63
21730;BME280;11027;51.030;13.812;2024-03-08T06:45:08;100686.34;;;1.45;71.76
21730;BME280;11027;51.030;13.812;2024-03-08T06:47:35;100685.38;;;1.46;71.77
21730;BME280;11027;51.030;13.812;2024-03-08T06:50:00;100679.78;;;1.49;71.51
21730;BME280;11027;51.030;13.812;2024-03-08T06:52:26;100668.94;;;1.50;71.59
21730;BME280;11027;51.030;13.812;2024-03-08T06:54:51;100667.84;;;1.53;71.69
21730;BME280;11027;51.030;13.812;2024-03-08T06:57:17;100667.84;;;1.53;71.57
21730;BME280;11027;51.030;13.812;2024-03-08T06:59:42;100671.50;;;1.52;71.63
21730;BME280;11027;51.030;13.812;2024-03-08T07:02:08;100674.19;;;1.52;71.69
21730;BME280;11027;51.030;13.812;2024-03-08T07:04:34;100666.34;;;1.49;71.63
21730;BME280;11027;51.030;13.812;2024-03-08T07:07:03;100663.47;;;1.52;71.79
21730;BME280;11027;51.030;13.812;2024-03-08T07:09:28;100664.94;;;1.56;71.84
21730;BME280;11027;51.030;13.812;2024-03-08T07:11:54;100665.69;;;1.58;71.68
21730;BME280;11027;51.030;13.812;2024-03-08T07:14:22;100665.47;;;1.61;71.62
21730;BME280;11027;51.030;13.812;2024-03-08T07:16:48;100666.00;;;1.66;71.70
21730;BME280;11027;51.030;13.812;2024-03-08T07:19:14;100660.38;;;1.69;71.57
21730;BME280;11027;51.030;13.812;2024-03-08T07:21:40;100657.50;;;1.72;71.70
21730;BME280;11027;51.030;13.812;2024-03-08T07:24:06;100654.56;;;1.75;71.65
21730;BME280;11027;51.030;13.812;2024-03-08T07:26:58;100656.06;;;1.79;71.66
21730;BME280;11027;51.030;13.812;2024-03-08T07:29:24;100659.28;;;1.85;71.65
21730;BME280;11027;51.030;13.812;2024-03-08T07:31:49;100652.81;;;1.87;71.54
21730;BME280;11027;51.030;13.812;2024-03-08T07:34:26;100649.16;;;1.88;71.69
21730;BME280;11027;51.030;13.812;2024-03-08T07:36:52;100654.19;;;1.93;71.87
21730;BME280;11027;51.030;13.812;2024-03-08T07:39:17;100641.16;;;1.99;71.81
21730;BME280;11027;51.030;13.812;2024-03-08T07:41:42;100651.34;;;2.07;71.69
21730;BME280;11027;51.030;13.812;2024-03-08T07:44:08;100649.94;;;2.14;71.61
21730;BME280;11027;51.030;13.812;2024-03-08T07:46:34;100643.09;;;2.22;71.60
21730;BME280;11027;51.030;13.812;2024-03-08T07:48:59;100639.09;;;2.27;71.40
21730;BME280;11027;51.030;13.812;2024-03-08T07:51:25;100644.00;;;2.33;71.51
21730;BME280;11027;51.030;13.812;2024-03-08T07:53:50;100639.00;;;2.40;71.08
21730;BME280;11027;51.030;13.812;2024-03-08T07:56:15;100639.75;;;2.42;71.26
21730;BME280;11027;51.030;13.812;2024-03-08T07:58:44;100636.00;;;2.45;71.39
21730;BME280;11027;51.030;13.812;2024-03-08T08:01:18;100634.66;;;2.50;71.17
21730;BME280;11027;51.030;13.812;2024-03-08T08:03:45;100636.13;;;2.54;71.41
21730;BME280;11027;51.030;13.812;2024-03-08T08:06:10;100633.75;;;2.63;71.21
21730;BME280;11027;51.030;13.812;2024-03-08T08:08:41;100632.53;;;2.67;71.13
21730;BME280;11027;51.030;13.812;2024-03-08T08:11:06;100634.47;;;2.76;71.19
21730;BME280;11027;51.030;13.812;2024-03-08T08:13:33;100625.19;;;2.80;70.96
21730;BME280;11027;51.030;13.812;2024-03-08T08:15:59;100621.28;;;2.84;70.96
21730;BME280;11027;51.030;13.812;2024-03-08T08:18:24;100620.81;;;2.90;71.01
21730;BME280;11027;51.030;13.812;2024-03-08T08:20:51;100619.25;;;2.99;71.09
21730;BME280;11027;51.030;13.812;2024-03-08T08:23:17;100612.28;;;3.08;70.96
21730;BME280;11027;51.030;13.812;2024-03-08T08:25:44;100614.22;;;3.17;70.93
21730;BME280;11027;51.030;13.812;2024-03-08T08:28:09;100605.41;;;3.26;70.57
21730;BME280;11027;51.030;13.812;2024-03-08T08:30:35;100602.97;;;3.34;70.53
21730;BME280;11027;51.030;13.812;2024-03-08T08:33:00;100600.50;;;3.43;70.27
21730;BME280;11027;51.030;13.812;2024-03-08T08:35:26;100598.06;;;3.51;69.97
21730;BME280;11027;51.030;13.812;2024-03-08T08:37:51;100598.28;;;3.59;69.82
21730;BME280;11027;51.030;13.812;2024-03-08T08:40:17;100596.81;;;3.66;69.70
21730;BME280;11027;51.030;13.812;2024-03-08T08:42:44;100593.50;;;3.74;69.18
21730;BME280;11027;51.030;13.812;2024-03-08T08:45:10;100589.28;;;3.81;68.96
21730;BME280;11027;51.030;13.812;2024-03-08T08:47:36;100589.63;;;3.88;68.67
21730;BME280;11027;51.030;13.812;2024-03-08T08:50:02;100586.56;;;3.92;68.52
21730;BME280;11027;51.030;13.812;2024-03-08T08:52:29;100582.38;;;3.99;68.31
21730;BME280;11027;51.030;13.812;2024-03-08T08:54:54;100575.88;;;4.02;68.14
21730;BME280;11027;51.030;13.812;2024-03-08T08:57:20;100579.88;;;4.08;67.74
21730;BME280;11027;51.030;13.812;2024-03-08T08:59:45;100571.16;;;4.15;67.78
21730;BME280;11027;51.030;13.812;2024-03-08T09:02:11;100570.63;;;4.21;67.42
21730;BME280;11027;51.030;13.812;2024-03-08T09:04:36;100558.34;;;4.29;67.32
21730;BME280;11027;51.030;13.812;2024-03-08T09:07:01;100561.50;;;4.34;67.31
21730;BME280;11027;51.030;13.812;2024-03-08T09:09:26;100560.97;;;4.40;67.34
21730;BME280;11027;51.030;13.812;2024-03-08T09:11:52;100556.06;;;4.45;67.27
21730;BME280;11027;51.030;13.812;2024-03-08T09:14:17;100562.06;;;4.49;67.11
21730;BME280;11027;51.030;13.812;2024-03-08T09:16:43;100555.25;;;4.54;66.86
21730;BME280;11027;51.030;13.812;2024-03-08T09:19:08;100554.00;;;4.58;66.71
21730;BME280;11027;51.030;13.812;2024-03-08T09:21:36;100547.09;;;4.66;66.52
21730;BME280;11027;51.030;13.812;2024-03-08T09:24:01;100546.56;;;4.72;66.53
21730;BME280;11027;51.030;13.812;2024-03-08T09:26:26;100549.44;;;4.80;66.13
21730;BME280;11027;51.030;13.812;2024-03-08T09:28:52;100540.09;;;4.84;66.03
21730;BME280;11027;51.030;13.812;2024-03-08T09:31:19;100541.25;;;4.91;65.87
21730;BME280;11027;51.030;13.812;2024-03-08T09:33:44;100531.63;;;4.98;65.57
21730;BME280;11027;51.030;13.812;2024-03-08T09:36:10;100533.94;;;5.03;65.32
21730;BME280;11027;51.030;13.812;2024-03-08T09:38:35;100529.81;;;5.09;65.42
21730;BME280;11027;51.030;13.812;2024-03-08T09:41:01;100525.84;;;5.13;65.27
21730;BME280;11027;51.030;13.812;2024-03-08T09:43:29;100524.31;;;5.20;65.15
21730;BME280;11027;51.030;13.812;2024-03-08T09:45:56;100525.75;;;5.24;65.03
21730;BME280;11027;51.030;13.812;2024-03-08T09:48:22;100514.38;;;5.30;64.95
21730;BME280;11027;51.030;13.812;2024-03-08T09:50:48;100515.81;;;5.34;64.65
21730;BME280;11027;51.030;13.812;2024-03-08T09:53:14;100513.28;;;5.43;64.12
21730;BME280;11027;51.030;13.812;2024-03-08T09:55:39;100512.72;;;5.49;63.66
21730;BME280;11027;51.030;13.812;2024-03-08T09:58:11;100511.19;;;5.56;63.32
21730;BME280;11027;51.030;13.812;2024-03-08T10:01:07;100510.50;;;5.64;62.79
21730;BME280;11027;51.030;13.812;2024-03-08T10:03:32;100512.47;;;5.71;62.58
21730;BME280;11027;51.030;13.812;2024-03-08T10:05:58;100507.50;;;5.76;62.49
21730;BME280;11027;51.030;13.812;2024-03-08T10:08:27;100500.50;;;5.84;62.21
21730;BME280;11027;51.030;13.812;2024-03-08T10:10:54;100499.94;;;5.90;61.64
21730;BME280;11027;51.030;13.812;2024-03-08T10:13:20;100501.13;;;5.97;61.45
21730;BME280;11027;51.030;13.812;2024-03-08T10:15:46;100494.44;;;6.01;61.44
21730;BME280;11027;51.030;13.812;2024-03-08T10:18:11;100492.88;;;6.08;61.43
21730;BME280;11027;51.030;13.812;2024-03-08T10:20:36;100496.00;;;6.13;61.20
21730;BME280;11027;51.030;13.812;2024-03-08T10:23:03;100491.16;;;6.17;60.94
21730;BME280;11027;51.030;13.812;2024-03-08T10:25:33;100487.72;;;6.25;61.16
21730;BME280;11027;51.030;13.812;2024-03-08T10:27:59;100487.16;;;6.31;61.24
21730;BME280;11027;51.030;13.812;2024-03-08T10:30:24;100484.72;;;6.37;61.27
21730;BME280;11027;51.030;13.812;2024-03-08T10:32:49;100476.84;;;6.44;60.96
21730;BME280;11027;51.030;13.812;2024-03-08T10:35:15;100481.69;;;6.50;60.59
21730;BME280;11027;51.030;13.812;2024-03-08T10:40:17;100478.53;;;6.65;60.29
21730;BME280;11027;51.030;13.812;2024-03-08T10:42:56;100471.81;;;6.69;59.38
21730;BME280;11027;51.030;13.812;2024-03-08T10:47:58;100467.91;;;6.81;59.52
21730;BME280;11027;51.030;13.812;2024-03-08T10:50:27;100463.91;;;6.85;59.72
21730;BME280;11027;51.030;13.812;2024-03-08T10:52:52;100459.91;;;6.89;59.80
21730;BME280;11027;51.030;13.812;2024-03-08T10:55:18;100459.44;;;6.94;59.61
21730;BME280;11027;51.030;13.812;2024-03-08T10:57:45;100452.44;;;7.01;59.17
21730;BME280;11027;51.030;13.812;2024-03-08T11:00:12;100447.53;;;7.05;59.06
21730;BME280;11027;51.030;13.812;2024-03-08T11:02:38;100440.53;;;7.12;58.92
21730;BME280;11027;51.030;13.812;2024-03-08T11:05:04;100451.75;;;7.17;59.07
21730;BME280;11027;51.030;13.812;2024-03-08T11:07:34;100450.16;;;7.24;58.88
21730;BME280;11027;51.030;13.812;2024-03-08T11:10:02;100445.84;;;7.31;59.08
21730;BME280;11027;51.030;13.812;2024-03-08T11:12:36;100440.78;;;7.36;58.84
21730;BME280;11027;51.030;13.812;2024-03-08T11:15:09;100434.75;;;7.43;58.53
21730;BME280;11027;51.030;13.812;2024-03-08T11:20:18;100420.97;;;7.54;57.76
21730;BME280;11027;51.030;13.812;2024-03-08T11:23:00;100421.06;;;7.62;57.52
21730;BME280;11027;51.030;13.812;2024-03-08T11:25:41;100413.00;;;7.70;57.27
21730;BME280;11027;51.030;13.812;2024-03-08T11:30:45;100413.44;;;7.84;57.43
21730;BME280;11027;51.030;13.812;2024-03-08T11:33:13;100413.34;;;7.93;56.89
21730;BME280;11027;51.030;13.812;2024-03-08T11:35:39;100403.44;;;8.02;56.31
21730;BME280;11027;51.030;13.812;2024-03-08T11:38:08;100401.63;;;8.11;56.57
21730;BME280;11027;51.030;13.812;2024-03-08T11:40:35;100393.38;;;8.20;56.51
21730;BME280;11027;51.030;13.812;2024-03-08T11:43:00;100382.41;;;8.30;56.17
21730;BME280;11027;51.030;13.812;2024-03-08T11:45:29;100373.16;;;8.41;56.07
21730;BME280;11027;51.030;13.812;2024-03-08T11:47:54;100373.88;;;8.51;55.82
21730;BME280;11027;51.030;13.812;2024-03-08T11:50:20;100364.78;;;8.60;55.66
21730;BME280;11027;51.030;13.812;2024-03-08T11:52:46;100365.81;;;8.68;55.21
21730;BME280;11027;51.030;13.812;2024-03-08T11:55:12;100362.13;;;8.77;55.34
21730;BME280;11027;51.030;13.812;2024-03-08T11:57:38;100360.44;;;8.84;55.13
21730;BME280;11027;51.030;13.812;2024-03-08T12:00:03;100364.22;;;8.91;54.68
21730;BME280;11027;51.030;13.812;2024-03-08T12:02:33;100354.38;;;8.98;54.38
21730;BME280;11027;51.030;13.812;2024-03-08T12:05:01;100348.63;;;9.10;54.32
21730;BME280;11027;51.030;13.812;2024-03-08T12:07:28;100341.00;;;9.21;53.93
21730;BME280;11027;51.030;13.812;2024-03-08T12:10:14;100343.91;;;9.36;53.84
21730;BME280;11027;51.030;13.812;2024-03-08T12:12:45;100338.81;;;9.50;53.57
21730;BME280;11027;51.030;13.812;2024-03-08T12:15:12;100338.66;;;9.59;52.56
21730;BME280;11027;51.030;13.812;2024-03-08T12:17:39;100334.75;;;9.70;52.16
21730;BME280;11027;51.030;13.812;2024-03-08T12:20:12;100331.31;;;9.85;52.36
21730;BME280;11027;51.030;13.812;2024-03-08T12:22:41;100322.81;;;9.96;52.06
21730;BME280;11027;51.030;13.812;2024-03-08T12:25:10;100323.94;;;10.10;51.89
21730;BME280;11027;51.030;13.812;2024-03-08T12:27:37;100319.66;;;10.24;52.12
21730;BME280;11027;51.030;13.812;2024-03-08T12:32:54;100313.50;;;10.46;51.52
21730;BME280;11027;51.030;13.812;2024-03-08T12:35:22;100302.59;;;10.54;50.65
21730;BME280;11027;51.030;13.812;2024-03-08T12:37:53;100300.50;;;10.65;50.36
21730;BME280;11027;51.030;13.812;2024-03-08T12:40:19;100289.84;;;10.78;50.54
21730;BME280;11027;51.030;13.812;2024-03-08T12:42:50;100288.41;;;10.90;50.40
21730;BME280;11027;51.030;13.812;2024-03-08T12:45:15;100284.22;;;11.02;50.31
21730;BME280;11027;51.030;13.812;2024-03-08T12:47:41;100286.88;;;11.19;50.38
21730;BME280;11027;51.030;13.812;2024-03-08T12:50:08;100279.09;;;11.31;50.12
21730;BME280;11027;51.030;13.812;2024-03-08T12:52:34;100270.47;;;11.42;49.23
21730;BME280;11027;51.030;13.812;2024-03-08T12:54:59;100276.34;;;11.54;49.63
21730;BME280;11027;51.030;13.812;2024-03-08T12:57:28;100262.06;;;11.67;49.07
21730;BME280;11027;51.030;13.812;2024-03-08T12:59:54;100268.50;;;11.74;48.59
21730;BME280;11027;51.030;13.812;2024-03-08T13:02:19;100265.28;;;11.85;48.21